createdAt,value
2023-01-13T00:00:36.455Z,47.38
2023-01-13T00:03:40.723Z,52.17
2023-01-13T00:06:42.995Z,57.10
2023-01-13T00:09:45.513Z,48.90
2023-01-13T00:12:47.667Z,57.90
2023-01-13T00:16:01.778Z,55.63
2023-01-13T00:22:06.768Z,51.08
2023-01-13T00:25:09.468Z,59.40
2023-01-13T00:28:12.067Z,50.95
2023-01-13T00:31:17.317Z,48.30
2023-01-13T00:34:20.070Z,48.60
2023-01-13T00:37:22.460Z,51.25
2023-01-13T00:40:24.966Z,49.87
2023-01-13T00:43:29.505Z,43.05
2023-01-13T00:46:32.324Z,50.30
2023-01-13T00:49:34.619Z,49.40
2023-01-13T00:52:37.135Z,36.90
2023-01-13T00:55:39.767Z,36.92
2023-01-13T00:58:44.256Z,42.13
2023-01-13T01:01:46.587Z,42.33
2023-01-13T01:04:49.272Z,41.63
2023-01-13T01:07:51.602Z,39.33
2023-01-13T01:11:03.322Z,42.22
2023-01-13T01:14:05.626Z,36.70
2023-01-13T01:17:08.216Z,36.43
2023-01-13T01:20:11.088Z,35.88
2023-01-13T01:23:13.623Z,38.20
2023-01-13T01:26:24.735Z,35.67
2023-01-13T01:29:27.470Z,34.33
2023-01-13T01:32:29.690Z,32.30
2023-01-13T01:35:32.245Z,34.58
2023-01-13T01:38:34.394Z,37.97
2023-01-13T01:41:37.347Z,34.50
2023-01-13T01:44:42.374Z,34.47
2023-01-13T01:47:47.623Z,36.10
2023-01-13T01:50:49.967Z,34.30
2023-01-13T01:53:55.234Z,32.42
2023-01-13T01:56:58.076Z,30.48
2023-01-13T02:00:02.375Z,32.35
2023-01-13T02:03:16.153Z,31.23
2023-01-13T02:06:19.060Z,32.47
2023-01-13T02:09:21.237Z,32.78
2023-01-13T02:12:32.500Z,34.30
2023-01-13T02:16:05.956Z,31.65
2023-01-13T02:19:19.418Z,31.45
2023-01-13T02:23:03.371Z,32.42
2023-01-13T02:26:33.166Z,31.23
2023-01-13T02:30:50.963Z,34.40
2023-01-13T02:34:13.670Z,33.47
2023-01-13T02:37:28.797Z,33.45
2023-01-13T02:40:31.482Z,35.92
2023-01-13T02:43:57.682Z,30.00
2023-01-13T02:47:22.621Z,26.08
2023-01-13T02:50:32.311Z,26.73
2023-01-13T02:53:41.749Z,30.75
2023-01-13T02:56:48.400Z,27.65
2023-01-13T02:59:55.137Z,26.85
2023-01-13T03:02:57.771Z,24.65
2023-01-13T03:06:09.084Z,29.15
2023-01-13T03:09:39.567Z,24.75
2023-01-13T03:13:01.012Z,27.98
2023-01-13T03:16:23.421Z,29.67
2023-01-13T03:19:46.887Z,33.42
2023-01-13T03:22:55.304Z,28.50
2023-01-13T03:26:10.835Z,30.92
2023-01-13T03:29:25.627Z,28.08
2023-01-13T03:32:36.702Z,25.85
2023-01-13T03:35:44.962Z,28.25
2023-01-13T03:38:53.935Z,28.35
2023-01-13T03:42:02.259Z,25.27
2023-01-13T03:45:17.842Z,22.85
2023-01-13T03:48:22.873Z,22.90
2023-01-13T03:51:31.356Z,21.35
2023-01-13T03:54:39.346Z,28.05
2023-01-13T03:57:50.050Z,25.50
2023-01-13T04:01:04.081Z,23.10
2023-01-13T04:04:14.045Z,20.60
2023-01-13T04:07:42.696Z,27.77
2023-01-13T04:10:53.641Z,26.25
2023-01-13T04:13:56.728Z,23.95
2023-01-13T04:16:59.331Z,27.73
2023-01-13T04:20:01.622Z,28.80
2023-01-13T04:23:04.294Z,27.47
2023-01-13T04:26:06.608Z,22.42
2023-01-13T04:29:09.187Z,24.73
2023-01-13T04:32:11.427Z,25.42
2023-01-13T04:35:14.115Z,28.00
2023-01-13T04:38:19.992Z,26.40
2023-01-13T04:41:22.644Z,28.55
2023-01-13T04:44:26.092Z,27.25
2023-01-13T04:47:28.692Z,29.37
2023-01-13T04:50:31.220Z,28.60
2023-01-13T04:53:33.885Z,26.42
2023-01-13T04:56:39.551Z,26.62
2023-01-13T04:59:46.212Z,26.25
2023-01-13T05:02:52.163Z,30.50
2023-01-13T05:05:54.691Z,25.02
2023-01-13T05:08:57.747Z,27.17
2023-01-13T05:15:39.888Z,28.08
2023-01-13T05:18:42.592Z,24.50
2023-01-13T05:22:03.265Z,26.70
2023-01-13T05:25:24.678Z,24.48
2023-01-13T05:28:31.595Z,26.15
2023-01-13T05:31:34.305Z,27.00
2023-01-13T05:34:36.998Z,22.53
2023-01-13T05:37:39.686Z,22.47
2023-01-13T05:41:01.132Z,29.08
2023-01-13T05:44:04.268Z,23.58
2023-01-13T05:47:06.813Z,29.30
2023-01-13T05:50:10.450Z,25.53
2023-01-13T05:53:13.463Z,27.05
2023-01-13T05:59:19.987Z,26.30
2023-01-13T06:02:26.889Z,25.33
2023-01-13T06:05:30.783Z,26.98
2023-01-13T06:08:33.034Z,24.25
2023-01-13T06:11:36.149Z,24.85
2023-01-13T06:14:41.276Z,19.92
2023-01-13T06:17:44.172Z,27.98
2023-01-13T06:20:47.207Z,26.08
2023-01-13T06:23:49.799Z,26.83
2023-01-13T06:26:52.166Z,24.37
2023-01-13T06:29:56.677Z,25.75
2023-01-13T06:33:01.903Z,27.37
2023-01-13T06:36:13.828Z,30.98
2023-01-13T06:39:20.217Z,26.00
2023-01-13T06:42:41.542Z,24.25
2023-01-13T06:45:51.123Z,27.77
2023-01-13T06:48:53.848Z,19.20
2023-01-13T06:51:56.084Z,24.50
2023-01-13T06:54:58.638Z,25.60
2023-01-13T06:58:02.553Z,25.70
2023-01-13T07:01:06.760Z,26.70
2023-01-13T07:04:09.088Z,23.27
2023-01-13T07:07:12.456Z,21.60
2023-01-13T07:10:22.089Z,29.55
2023-01-13T07:13:43.745Z,26.02
2023-01-13T07:16:46.859Z,23.20
2023-01-13T07:19:49.557Z,21.33
2023-01-13T07:22:55.866Z,20.65
2023-01-13T07:25:59.568Z,21.75
2023-01-13T07:29:01.859Z,20.37
2023-01-13T07:32:05.541Z,21.25
2023-01-13T07:35:08.087Z,20.15
2023-01-13T07:38:12.245Z,23.08
2023-01-13T07:41:33.654Z,25.85
2023-01-13T07:44:36.489Z,18.17
2023-01-13T07:47:39.131Z,23.42
2023-01-13T07:50:44.056Z,18.00
2023-01-13T07:53:46.604Z,19.17
2023-01-13T07:56:49.205Z,22.13
2023-01-13T07:59:51.424Z,20.02
2023-01-13T08:02:53.971Z,20.90
2023-01-13T08:05:56.572Z,20.90
2023-01-13T08:08:58.935Z,22.52
2023-01-13T08:12:21.116Z,23.80
2023-01-13T08:15:23.852Z,29.25
2023-01-13T08:18:26.472Z,24.17
2023-01-13T08:21:28.862Z,23.38
2023-01-13T08:24:31.538Z,18.07
2023-01-13T08:27:34.125Z,17.20
2023-01-13T08:30:36.887Z,24.27
2023-01-13T08:33:40.067Z,14.85
2023-01-13T08:36:42.673Z,18.00
2023-01-13T08:39:44.946Z,17.62
2023-01-13T08:42:48.727Z,17.08
2023-01-13T08:46:22.447Z,22.73
2023-01-13T08:49:25.913Z,19.10
2023-01-13T08:52:30.630Z,21.67
2023-01-13T08:55:33.344Z,16.62
2023-01-13T08:58:35.734Z,16.15
2023-01-13T09:01:39.435Z,22.45
2023-01-13T09:04:42.124Z,17.23
2023-01-13T09:07:45.049Z,14.32
2023-01-13T09:10:47.518Z,17.77
2023-01-13T09:13:50.533Z,20.17
2023-01-13T09:16:52.820Z,16.47
2023-01-13T09:19:55.869Z,15.50
2023-01-13T09:22:58.133Z,18.47
2023-01-13T09:26:00.829Z,18.03
2023-01-13T09:29:03.589Z,21.55
2023-01-13T09:32:07.142Z,20.45
2023-01-13T09:35:09.778Z,18.40
2023-01-13T09:38:12.759Z,21.52
2023-01-13T09:41:39.699Z,18.62
2023-01-13T09:45:01.698Z,19.80
2023-01-13T09:48:22.545Z,19.08
2023-01-13T09:51:34.591Z,23.73
2023-01-13T09:54:44.326Z,25.42
2023-01-13T09:57:47.105Z,23.55
2023-01-13T10:00:55.522Z,18.90
2023-01-13T10:04:03.866Z,23.12
2023-01-13T10:07:13.803Z,18.73
2023-01-13T10:10:32.215Z,22.42
2023-01-13T10:13:35.328Z,21.37
2023-01-13T10:16:46.070Z,25.17
2023-01-13T10:19:50.566Z,23.25
2023-01-13T10:23:34.544Z,22.08
2023-01-13T10:27:16.281Z,22.20
2023-01-13T10:30:31.684Z,20.65
2023-01-13T10:33:34.120Z,20.70
2023-01-13T10:36:36.705Z,20.37
2023-01-13T10:39:47.163Z,22.15
2023-01-13T10:43:05.626Z,27.35
2023-01-13T10:46:13.346Z,25.25
2023-01-13T10:49:36.516Z,24.98
2023-01-13T10:52:43.401Z,24.80
2023-01-13T10:56:01.990Z,22.98
2023-01-13T10:59:18.369Z,24.70
2023-01-13T11:02:30.677Z,24.70
2023-01-13T11:05:33.012Z,22.40
2023-01-13T11:08:45.244Z,21.05
2023-01-13T11:11:50.193Z,28.33
2023-01-13T11:14:53.141Z,23.48
2023-01-13T11:18:09.409Z,23.75
2023-01-13T11:21:22.515Z,21.45
2023-01-13T11:24:51.226Z,21.35
2023-01-13T11:28:02.510Z,19.55
2023-01-13T11:31:16.968Z,29.15
2023-01-13T11:34:25.828Z,22.37
2023-01-13T11:37:33.746Z,22.50
2023-01-13T11:40:46.036Z,24.77
2023-01-13T11:43:55.727Z,25.17
2023-01-13T11:46:58.612Z,25.17
2023-01-13T11:50:01.687Z,29.80
2023-01-13T11:53:08.776Z,25.90
2023-01-13T11:56:27.613Z,25.20
2023-01-13T12:00:15.316Z,21.00
2023-01-13T12:03:31.187Z,26.77
2023-01-13T12:06:40.609Z,23.48
2023-01-13T12:09:56.004Z,26.75
2023-01-13T12:13:33.777Z,30.15
2023-01-13T12:16:46.741Z,30.88
2023-01-13T12:19:51.149Z,30.65
2023-01-13T12:22:58.305Z,31.80
2023-01-13T12:26:12.327Z,33.28
2023-01-13T12:29:18.965Z,27.90
2023-01-13T12:32:44.816Z,24.60
2023-01-13T12:36:15.885Z,26.65
2023-01-13T12:39:20.971Z,23.55
2023-01-13T12:43:25.994Z,27.67
2023-01-13T12:46:28.180Z,29.33
2023-01-13T12:49:36.261Z,26.95
2023-01-13T12:52:45.436Z,33.90
2023-01-13T12:55:52.219Z,30.83
2023-01-13T12:59:14.366Z,29.75
2023-01-13T13:02:27.547Z,32.50
2023-01-13T13:05:39.040Z,35.83
2023-01-13T13:09:03.169Z,25.27
2023-01-13T13:12:49.413Z,31.33
2023-01-13T13:15:52.148Z,28.42
2023-01-13T13:19:21.243Z,31.10
2023-01-13T13:22:26.714Z,33.42
2023-01-13T13:25:32.086Z,28.30
2023-01-13T13:28:41.186Z,26.45
2023-01-13T13:32:07.854Z,27.48
2023-01-13T13:35:32.532Z,27.87
2023-01-13T13:39:25.782Z,26.90
2023-01-13T13:42:55.563Z,27.15
2023-01-13T13:46:16.575Z,28.17
2023-01-13T13:49:36.447Z,27.17
2023-01-13T13:52:43.429Z,26.85
2023-01-13T13:55:59.537Z,29.10
2023-01-13T13:59:02.046Z,29.83
2023-01-13T14:02:18.553Z,31.87
2023-01-13T14:05:24.890Z,27.62
2023-01-13T14:08:29.638Z,28.75
2023-01-13T14:11:33.667Z,26.95
2023-01-13T14:17:38.624Z,27.10
2023-01-13T14:20:42.092Z,23.17
2023-01-13T14:23:56.567Z,22.52
2023-01-13T14:27:16.929Z,23.85
2023-01-13T14:30:19.726Z,22.58
2023-01-13T14:33:27.295Z,24.58
2023-01-13T14:36:32.853Z,25.27
2023-01-13T14:39:39.557Z,23.73
2023-01-13T14:42:42.301Z,22.95
2023-01-13T14:45:55.156Z,22.55
2023-01-13T14:49:01.415Z,24.35
2023-01-13T14:52:20.571Z,25.27
2023-01-13T14:55:40.309Z,22.85
2023-01-13T14:58:42.819Z,20.73
2023-01-13T15:01:45.651Z,28.20
2023-01-13T15:04:50.433Z,23.45
2023-01-13T15:07:54.667Z,27.15
2023-01-13T15:11:03.404Z,28.25
2023-01-13T15:14:10.702Z,25.42
2023-01-13T15:17:16.571Z,30.00
2023-01-13T15:20:22.681Z,37.13
2023-01-13T15:23:25.011Z,31.60
2023-01-13T15:26:29.935Z,26.60
2023-01-13T15:29:32.859Z,27.80
2023-01-13T15:32:35.321Z,30.95
2023-01-13T15:35:39.222Z,32.22
2023-01-13T15:38:41.732Z,30.05
2023-01-13T15:42:02.562Z,35.20
2023-01-13T15:45:24.036Z,24.55
2023-01-13T15:48:28.115Z,30.80
2023-01-13T15:51:30.611Z,32.65
2023-01-13T15:54:32.855Z,29.12
2023-01-13T15:57:37.791Z,27.37
2023-01-13T16:00:42.257Z,36.85
2023-01-13T16:03:45.174Z,26.80
2023-01-13T16:06:47.640Z,32.05
2023-01-13T16:09:50.372Z,32.05
2023-01-13T16:12:53.251Z,30.65
2023-01-13T16:15:56.808Z,30.90
2023-01-13T16:18:59.237Z,26.65
2023-01-13T16:22:01.762Z,27.67
2023-01-13T16:25:04.368Z,22.13
2023-01-13T16:28:06.873Z,26.27
2023-01-13T16:31:24.229Z,23.85
2023-01-13T16:34:26.936Z,21.45
2023-01-13T16:37:29.719Z,25.10
2023-01-13T16:40:36.600Z,30.98
2023-01-13T16:43:39.415Z,26.37
2023-01-13T16:46:44.552Z,27.02
2023-01-13T16:49:47.227Z,30.55
2023-01-13T16:52:49.956Z,26.77
2023-01-13T16:55:52.756Z,27.58
2023-01-13T16:58:58.736Z,27.92
2023-01-13T17:02:02.061Z,26.87
2023-01-13T17:05:05.881Z,28.67
2023-01-13T17:08:19.034Z,28.73
2023-01-13T17:11:22.095Z,29.77
2023-01-13T17:14:25.288Z,22.73
2023-01-13T17:17:28.207Z,21.58
2023-01-13T17:20:30.600Z,27.10
2023-01-13T17:23:33.454Z,27.23
2023-01-13T17:26:38.249Z,21.20
2023-01-13T17:29:40.911Z,28.73
2023-01-13T17:32:43.087Z,25.40
2023-01-13T17:35:46.684Z,23.48
2023-01-13T17:38:49.221Z,23.20
2023-01-13T17:41:55.980Z,23.57
2023-01-13T17:44:59.403Z,23.87
2023-01-13T17:48:02.047Z,25.67
2023-01-13T17:51:08.782Z,25.62
2023-01-13T17:54:12.447Z,29.90
2023-01-13T17:57:14.786Z,27.58
2023-01-13T18:00:18.667Z,23.35
2023-01-13T18:03:21.218Z,23.20
2023-01-13T18:06:23.648Z,22.30
2023-01-13T18:09:26.749Z,26.20
2023-01-13T18:12:29.330Z,31.45
2023-01-13T18:15:32.481Z,26.33
2023-01-13T18:18:34.766Z,22.62
2023-01-13T18:21:56.333Z,29.90
2023-01-13T18:25:17.737Z,22.52
2023-01-13T18:28:20.512Z,24.87
2023-01-13T18:31:22.840Z,27.55
2023-01-13T18:34:25.485Z,24.52
2023-01-13T18:37:27.811Z,25.75
2023-01-13T18:40:30.408Z,24.70
2023-01-13T18:43:33.343Z,28.42
2023-01-13T18:46:35.921Z,26.15
2023-01-13T18:49:38.218Z,29.15
2023-01-13T18:52:41.316Z,27.60
2023-01-13T18:55:44.006Z,19.37
2023-01-13T18:58:52.054Z,22.97
2023-01-13T19:01:55.072Z,29.23
2023-01-13T19:08:00.607Z,27.92
2023-01-13T19:11:07.176Z,31.62
2023-01-13T19:14:09.732Z,28.48
2023-01-13T19:17:15.456Z,21.47
2023-01-13T19:20:17.966Z,30.77
2023-01-13T19:23:20.962Z,24.77
2023-01-13T19:26:23.207Z,30.23
2023-01-13T19:29:26.122Z,36.50
2023-01-13T19:32:30.558Z,25.05
2023-01-13T19:35:33.531Z,27.27
2023-01-13T19:38:37.671Z,29.27
2023-01-13T19:41:58.974Z,25.20
2023-01-13T19:45:19.876Z,23.48
2023-01-13T19:48:22.357Z,29.35
2023-01-13T19:51:25.011Z,29.80
2023-01-13T19:54:27.717Z,27.87
2023-01-13T19:57:30.750Z,22.77
2023-01-13T20:00:34.847Z,28.73
2023-01-13T20:03:38.040Z,30.83
2023-01-13T20:06:41.045Z,24.53
2023-01-13T20:09:44.813Z,32.55
2023-01-13T20:12:47.175Z,29.58
2023-01-13T20:15:49.765Z,27.47
2023-01-13T20:18:52.081Z,26.90
2023-01-13T20:21:54.710Z,35.38
2023-01-13T20:24:57.255Z,29.00
2023-01-13T20:28:01.978Z,31.37
2023-01-13T20:31:12.059Z,27.62
2023-01-13T20:34:15.425Z,33.22
2023-01-13T20:37:17.686Z,26.45
2023-01-13T20:40:20.726Z,33.17
2023-01-13T20:43:23.020Z,33.50
2023-01-13T20:46:25.764Z,27.87
2023-01-13T20:49:28.267Z,28.85
2023-01-13T20:52:30.917Z,25.33
2023-01-13T20:55:33.067Z,26.02
2023-01-13T20:58:37.966Z,31.83
2023-01-13T21:01:40.334Z,33.72
2023-01-13T21:04:43.293Z,25.57
2023-01-13T21:07:45.542Z,41.03
2023-01-13T21:10:47.976Z,32.97
2023-01-13T21:14:09.009Z,35.10
2023-01-13T21:17:33.361Z,29.12
2023-01-13T21:20:37.142Z,34.95
2023-01-13T21:23:46.743Z,38.35
2023-01-13T21:26:59.102Z,35.67
2023-01-13T21:30:01.654Z,37.47
2023-01-13T21:33:06.053Z,36.47
2023-01-13T21:36:12.734Z,42.30
2023-01-13T21:39:16.083Z,39.72
2023-01-13T21:45:58.148Z,36.42
2023-01-13T21:49:01.174Z,36.97
2023-01-13T21:52:03.420Z,39.25
2023-01-13T21:55:21.560Z,43.85
2023-01-13T21:58:24.111Z,40.50
2023-01-13T22:01:26.786Z,42.93
2023-01-13T22:04:29.435Z,41.57
2023-01-13T22:07:33.328Z,39.55
2023-01-13T22:10:35.996Z,37.47
2023-01-13T22:14:17.236Z,45.35
2023-01-13T22:17:21.491Z,38.22
2023-01-13T22:20:23.796Z,43.40
2023-01-13T22:23:26.501Z,40.33
2023-01-13T22:26:28.786Z,43.72
2023-01-13T22:29:31.204Z,47.30
2023-01-13T22:32:36.380Z,41.88
2023-01-13T22:35:38.932Z,40.95
2023-01-13T22:38:41.187Z,43.45
2023-01-13T22:41:43.807Z,35.30
2023-01-13T22:44:46.039Z,39.08
2023-01-13T22:47:49.761Z,43.50
2023-01-13T22:50:52.341Z,36.90
2023-01-13T22:53:54.922Z,46.45
2023-01-13T22:56:57.169Z,40.80
2023-01-13T22:59:59.637Z,42.30
2023-01-13T23:03:01.838Z,42.17
2023-01-13T23:06:05.282Z,44.25
2023-01-13T23:09:08.079Z,36.60
2023-01-13T23:12:10.597Z,35.55
2023-01-13T23:15:12.833Z,41.08
2023-01-13T23:18:15.302Z,35.17
2023-01-13T23:21:23.808Z,40.60
2023-01-13T23:24:27.923Z,36.10
2023-01-13T23:27:30.283Z,37.47
2023-01-13T23:30:33.036Z,45.75
2023-01-13T23:33:37.535Z,43.85
2023-01-13T23:36:41.709Z,36.20
2023-01-13T23:39:44.123Z,39.67
2023-01-13T23:42:46.721Z,40.97
2023-01-13T23:45:49.489Z,41.20
2023-01-13T23:48:52.356Z,44.20
2023-01-13T23:51:54.722Z,39.73
2023-01-13T23:54:59.087Z,37.47
2023-01-13T23:58:01.555Z,38.13
